Time;durP1;ratioP1;P1;durP2;ratioP2;P2;SDS_P1;SDS_P2;PMS_P1;PMS_P2;Temp;Humidity;BMP_temperature;BMP_pressure;BME280_temperature;BME280_humidity;BME280_pressure;Samples;Min_cycle;Max_cycle;Signal;HPM_P1;HPM_P2
2021/12/12 00:00:33;;;;;;;;;;;;;;;21.24;44.33;101381.28;7286786;19;151704;-52
2021/12/12 00:03:14;;;;;;;;;;;;;;;21.20;45.33;101383.88;7285324;19;153798;-50
2021/12/12 00:05:43;;;;;;;;;;;;;;;21.01;45.78;101391.41;7289754;19;153129;-50
2021/12/12 00:08:11;;;;;;;;;;;;;;;21.10;46.13;101405.63;7279497;19;152687;-52
2021/12/12 00:10:39;;;;;;;;;;;;;;;21.12;45.96;101400.56;7281527;19;154026;-52
2021/12/12 00:13:09;;;;;;;;;;;;;;;21.12;46.04;101397.75;7285159;19;152249;-52
2021/12/12 00:15:36;;;;;;;;;;;;;;;21.12;45.70;101400.56;7283269;19;153664;-51
2021/12/12 00:18:03;;;;;;;;;;;;;;;21.10;45.87;101397.19;7282905;19;154724;-51
2021/12/12 00:20:31;;;;;;;;;;;;;;;21.08;45.59;101403.09;7284946;19;151797;-52
2021/12/12 00:22:59;;;;;;;;;;;;;;;21.05;45.72;101402.88;7283573;19;153460;-51
2021/12/12 00:25:29;;;;;;;;;;;;;;;21.04;45.83;101413.28;7284675;19;153309;-52
2021/12/12 00:27:56;;;;;;;;;;;;;;;21.01;45.61;101397.03;7285315;19;152124;-51
2021/12/12 00:30:24;;;;;;;;;;;;;;;21.01;45.53;101407.44;7280191;19;152810;-50
2021/12/12 00:32:52;;;;;;;;;;;;;;;21.06;45.66;101404.56;7280292;19;151932;-51
2021/12/12 00:35:19;;;;;;;;;;;;;;;21.05;45.57;101414.97;7280476;19;153707;-51
2021/12/12 00:37:48;;;;;;;;;;;;;;;21.01;45.61;101408.28;7281699;19;153002;-51
2021/12/12 00:40:25;;;;;;;;;;;;;;;20.97;45.66;101407.19;7282050;19;152005;-52
2021/12/12 00:42:54;;;;;;;;;;;;;;;20.92;45.54;101409.22;7280854;19;151884;-51
2021/12/12 00:45:21;;;;;;;;;;;;;;;20.92;45.98;101410.06;7282224;19;153495;-51
2021/12/12 00:47:49;;;;;;;;;;;;;;;20.89;45.71;101407.03;7280606;19;152125;-51
2021/12/12 00:50:21;;;;;;;;;;;;;;;20.88;45.76;101402.53;7289706;19;153237;-51
2021/12/12 00:52:48;;;;;;;;;;;;;;;20.85;46.29;101413.22;7280965;19;152236;-51
2021/12/12 00:55:15;;;;;;;;;;;;;;;20.83;46.05;101407.09;7281238;19;153544;-51
2021/12/12 00:57:43;;;;;;;;;;;;;;;20.80;46.26;101413.28;7276177;19;153506;-51
2021/12/12 01:00:11;;;;;;;;;;;;;;;20.80;46.21;101406.88;7281298;19;152310;-51
2021/12/12 01:02:38;;;;;;;;;;;;;;;20.79;46.33;101405.19;7281597;19;153754;-51
2021/12/12 01:05:07;;;;;;;;;;;;;;;20.79;46.83;101405.19;7282231;19;153759;-51
2021/12/12 01:07:36;;;;;;;;;;;;;;;20.77;46.84;101404.63;7281529;19;152405;-51
2021/12/12 01:10:06;;;;;;;;;;;;;;;20.76;46.93;101405.75;7284137;19;152491;-51
2021/12/12 01:12:33;;;;;;;;;;;;;;;20.74;47.06;101408.88;7289327;19;153635;-51
2021/12/12 01:15:03;;;;;;;;;;;;;;;20.76;47.01;101411.38;7279194;19;152323;-52
2021/12/12 01:17:34;;;;;;;;;;;;;;;20.72;46.63;101418.72;7276524;19;154074;-51
2021/12/12 01:20:09;;;;;;;;;;;;;;;20.70;46.59;101413.44;7284237;19;151856;-51
2021/12/12 01:22:37;;;;;;;;;;;;;;;20.69;46.66;101416.53;7282389;19;152625;-52
2021/12/12 01:25:10;;;;;;;;;;;;;;;20.66;46.75;101425.56;7278781;19;153665;-51
2021/12/12 01:27:37;;;;;;;;;;;;;;;20.63;46.93;101421.34;7281577;19;152472;-51
2021/12/12 01:30:07;;;;;;;;;;;;;;;20.63;46.97;101423.31;7280409;19;153225;-52
2021/12/12 01:32:34;;;;;;;;;;;;;;;20.59;47.03;101420.28;7281181;19;153706;-51
2021/12/12 01:35:02;;;;;;;;;;;;;;;20.58;47.27;101417.78;7289142;19;151502;-51
2021/12/12 01:40:01;;;;;;;;;;;;;;;20.55;47.21;101418.38;7282871;19;151922;-51
2021/12/12 01:42:32;;;;;;;;;;;;;;;20.53;47.04;101424.28;7279835;19;153439;-52
2021/12/12 01:45:04;;;;;;;;;;;;;;;20.51;47.24;101432.16;7277515;19;152278;-52
2021/12/12 01:47:33;;;;;;;;;;;;;;;20.50;47.44;101429.63;7281776;19;151801;-51
2021/12/12 01:50:02;;;;;;;;;;;;;;;20.41;47.75;101427.50;7283838;19;152599;-51
2021/12/12 01:52:31;;;;;;;;;;;;;;;20.44;47.71;101437.31;7278039;19;152318;-51
2021/12/12 01:55:03;;;;;;;;;;;;;;;20.40;47.86;101437.03;7288530;19;152421;-52
2021/12/12 01:57:32;;;;;;;;;;;;;;;20.39;47.57;101440.16;7274728;19;152198;-52
2021/12/12 02:00:00;;;;;;;;;;;;;;;20.36;47.90;101446.34;7281283;19;152099;-51
2021/12/12 02:02:29;;;;;;;;;;;;;;;20.35;47.73;101444.69;7278736;19;153550;-51
2021/12/12 02:04:58;;;;;;;;;;;;;;;20.31;48.03;101441.59;7282493;19;153228;-51
2021/12/12 02:07:27;;;;;;;;;;;;;;;20.32;47.97;101450.88;7279956;19;152200;-51
2021/12/12 02:09:54;;;;;;;;;;;;;;;20.29;48.22;101451.44;7278350;19;152624;-52
2021/12/12 02:12:22;;;;;;;;;;;;;;;20.24;48.51;101455.13;7277506;19;153729;-51
2021/12/12 02:14:49;;;;;;;;;;;;;;;20.24;48.27;101452.31;7278483;19;152058;-51
2021/12/12 02:17:26;;;;;;;;;;;;;;;20.20;48.42;101453.19;7283283;19;153143;-51
2021/12/12 02:20:07;;;;;;;;;;;;;;;20.17;48.74;101454.59;7281212;19;152471;-51
2021/12/12 02:38:14;;;;;;;;;;;;;;;19.93;49.02;101460.16;7275668;19;152541;-51
2021/12/12 02:40:44;;;;;;;;;;;;;;;19.91;49.10;101459.59;7287092;19;153448;-52
2021/12/12 02:43:12;;;;;;;;;;;;;;;19.90;49.37;101459.88;7277411;19;153318;-51
2021/12/12 02:45:40;;;;;;;;;;;;;;;19.86;49.55;101456.81;7276412;19;153910;-51
2021/12/12 02:48:09;;;;;;;;;;;;;;;19.86;49.53;101470.00;7277403;19;152131;-52
2021/12/12 02:50:39;;;;;;;;;;;;;;;19.87;49.69;101460.47;7277459;19;152515;-52
2021/12/12 02:53:11;;;;;;;;;;;;;;;19.85;49.74;101474.78;7276002;19;153922;-51
2021/12/12 02:55:41;;;;;;;;;;;;;;;19.81;49.54;101464.44;7277010;19;152344;-51
2021/12/12 02:58:09;;;;;;;;;;;;;;;19.79;50.03;101472.31;7283065;19;153206;-51
2021/12/12 03:00:39;;;;;;;;;;;;;;;19.81;49.83;101461.63;7282277;19;153241;-51
2021/12/12 03:03:08;;;;;;;;;;;;;;;19.82;49.96;101469.75;7291326;19;152342;-51
2021/12/12 03:05:36;;;;;;;;;;;;;;;19.80;49.63;101463.63;7283430;19;153233;-52
2021/12/12 03:08:04;;;;;;;;;;;;;;;19.78;50.00;101463.06;7284121;19;152125;-51
2021/12/12 03:10:33;;;;;;;;;;;;;;;19.76;49.82;101456.09;7285819;19;153165;-51
2021/12/12 03:13:00;;;;;;;;;;;;;;;19.73;49.84;101465.91;7283843;19;152934;-51
2021/12/12 03:15:29;;;;;;;;;;;;;;;19.71;50.34;101464.53;7285923;19;152632;-50
2021/12/12 03:17:57;;;;;;;;;;;;;;;19.68;49.95;101467.88;7281543;19;153610;-51
2021/12/12 03:20:26;;;;;;;;;;;;;;;19.64;50.05;101467.63;7283318;19;154163;-51
2021/12/12 03:22:59;;;;;;;;;;;;;;;19.60;50.31;101455.31;7285813;19;151795;-51
2021/12/12 03:25:27;;;;;;;;;;;;;;;19.58;50.30;101460.38;7291270;19;153534;-51
2021/12/12 03:27:53;;;;;;;;;;;;;;;19.55;50.48;101466.56;7283097;19;152504;-51
2021/12/12 03:30:20;;;;;;;;;;;;;;;19.54;50.57;101470.50;7285185;19;153317;-51
2021/12/12 03:32:47;;;;;;;;;;;;;;;19.54;50.66;101471.34;7284223;19;153552;-51
2021/12/12 03:35:15;;;;;;;;;;;;;;;19.51;50.59;101471.09;7284665;19;151933;-51
2021/12/12 03:37:42;;;;;;;;;;;;;;;19.53;50.87;101466.03;7281030;19;152205;-51
2021/12/12 03:40:14;;;;;;;;;;;;;;;19.49;50.82;101464.91;7284895;19;153987;-51
2021/12/12 03:42:42;;;;;;;;;;;;;;;19.48;50.88;101468.88;7284877;19;152567;-51
2021/12/12 03:45:09;;;;;;;;;;;;;;;19.46;51.25;101469.13;7282503;19;153652;-51
2021/12/12 03:47:38;;;;;;;;;;;;;;;19.45;51.13;101470.25;7290851;19;151888;-51
2021/12/12 03:50:07;;;;;;;;;;;;;;;19.46;51.46;101473.91;7285338;19;152713;-51
2021/12/12 03:52:34;;;;;;;;;;;;;;;19.46;51.47;101471.94;7283816;19;153417;-51
2021/12/12 03:55:02;;;;;;;;;;;;;;;19.48;51.55;101477.28;7285325;19;152666;-51
2021/12/12 03:57:29;;;;;;;;;;;;;;;19.42;51.43;101478.38;7282008;19;153051;-51
2021/12/12 03:59:57;;;;;;;;;;;;;;;19.40;51.51;101472.22;7283077;19;153092;-51
2021/12/12 04:02:23;;;;;;;;;;;;;;;19.37;51.61;101475.59;7285155;19;151903;-50
2021/12/12 04:04:50;;;;;;;;;;;;;;;19.34;51.76;101467.78;7282473;19;153745;-51
2021/12/12 04:07:22;;;;;;;;;;;;;;;19.32;51.90;101473.66;7286717;19;155212;-51
2021/12/12 04:09:49;;;;;;;;;;;;;;;19.30;51.81;101477.88;7280798;19;152827;-52
2021/12/12 04:12:17;;;;;;;;;;;;;;;19.31;51.93;101479.53;7280829;19;152299;-51
2021/12/12 04:14:45;;;;;;;;;;;;;;;19.29;52.03;101482.66;7284458;19;151907;-51
2021/12/12 04:17:14;;;;;;;;;;;;;;;19.28;52.05;101482.94;7281060;19;153109;-50
2021/12/12 04:19:42;;;;;;;;;;;;;;;19.25;52.29;101473.16;7283208;19;153860;-51
2021/12/12 04:22:09;;;;;;;;;;;;;;;19.23;52.36;101486.59;7284497;19;152334;-50
2021/12/12 04:24:38;;;;;;;;;;;;;;;19.23;52.32;101489.38;7284930;19;153452;-51
2021/12/12 04:27:05;;;;;;;;;;;;;;;19.21;52.53;101497.25;7280737;19;153422;-51
2021/12/12 04:29:34;;;;;;;;;;;;;;;19.22;52.33;101503.69;7292604;19;151660;-50
2021/12/12 04:32:03;;;;;;;;;;;;;;;19.20;52.29;101511.53;7282683;19;153606;-51
2021/12/12 04:34:33;;;;;;;;;;;;;;;19.18;52.64;101508.19;7283494;19;152112;-51
2021/12/12 04:37:01;;;;;;;;;;;;;;;19.17;52.50;101496.13;7282810;19;153649;-50
2021/12/12 04:39:30;;;;;;;;;;;;;;;19.18;52.93;101508.19;7282260;19;152790;-51
2021/12/12 04:41:59;;;;;;;;;;;;;;;19.17;52.71;101500.91;7284632;19;152143;-51
2021/12/12 04:44:29;;;;;;;;;;;;;;;19.16;52.84;101508.47;7280932;19;153796;-51
2021/12/12 04:52:23;;;;;;;;;;;;;;;19.12;52.83;101512.13;7288833;19;153487;-51
2021/12/12 04:54:58;;;;;;;;;;;;;;;19.16;52.89;101524.44;7280761;19;152264;-50
2021/12/12 04:57:28;;;;;;;;;;;;;;;19.14;53.13;101532.28;7281068;19;153255;-51
2021/12/12 05:00:00;;;;;;;;;;;;;;;19.12;52.96;101514.94;7282686;19;154625;-50
2021/12/12 05:02:28;;;;;;;;;;;;;;;19.10;53.31;101529.22;7284037;19;152045;-51
2021/12/12 05:04:59;;;;;;;;;;;;;;;19.15;52.74;101523.59;7282357;19;153676;-51
2021/12/12 05:07:36;;;;;;;;;;;;;;;19.12;53.33;101535.38;7280133;19;154001;-50
2021/12/12 05:10:03;;;;;;;;;;;;;;;19.12;52.95;101532.59;7282520;19;152144;-51
2021/12/12 05:12:35;;;;;;;;;;;;;;;19.09;53.32;101535.94;7280627;19;151832;-51
2021/12/12 05:15:06;;;;;;;;;;;;;;;19.08;53.02;101535.09;7287619;19;153468;-51
2021/12/12 05:17:38;;;;;;;;;;;;;;;19.06;53.44;101528.97;7280797;19;153215;-51
2021/12/12 05:20:09;;;;;;;;;;;;;;;19.08;53.02;101537.91;7280717;19;153249;-51
2021/12/12 05:22:39;;;;;;;;;;;;;;;19.13;53.09;101545.44;7282736;19;151852;-51
2021/12/12 05:25:09;;;;;;;;;;;;;;;19.07;53.47;101541.84;7283213;19;152385;-50
2021/12/12 05:27:40;;;;;;;;;;;;;;;19.04;53.25;101545.19;7282322;19;153399;-51
2021/12/12 05:30:10;;;;;;;;;;;;;;;19.00;53.31;101549.69;7283235;19;152600;-51
2021/12/12 05:32:37;;;;;;;;;;;;;;;18.99;53.32;101555.56;7285046;19;152860;-51
2021/12/12 05:35:05;;;;;;;;;;;;;;;18.96;53.44;101554.19;7282161;19;153497;-51
2021/12/12 05:37:32;;;;;;;;;;;;;;;18.96;53.72;101558.94;7289513;19;151936;-51
2021/12/12 05:40:02;;;;;;;;;;;;;;;18.94;53.58;101553.59;7283442;19;153265;-51
2021/12/12 05:42:29;;;;;;;;;;;;;;;18.94;53.85;101558.41;7282587;19;152037;-50
2021/12/12 05:44:58;;;;;;;;;;;;;;;18.97;53.41;101552.22;7284242;19;152374;-50
2021/12/12 05:47:26;;;;;;;;;;;;;;;18.98;53.69;101553.91;7279206;19;153441;-50
2021/12/12 05:49:56;;;;;;;;;;;;;;;18.98;53.58;101549.16;7281247;19;152424;-51
2021/12/12 05:52:24;;;;;;;;;;;;;;;18.99;53.60;101559.19;7282803;19;153078;-50
2021/12/12 05:54:52;;;;;;;;;;;;;;;18.99;53.89;101555.56;7281271;19;154173;-50
2021/12/12 05:57:27;;;;;;;;;;;;;;;18.96;53.78;101556.97;7289793;19;152184;-50
2021/12/12 05:59:56;;;;;;;;;;;;;;;18.96;53.74;101568.19;7282508;19;153923;-51
2021/12/12 06:02:24;;;;;;;;;;;;;;;18.96;53.95;101562.56;7282517;19;151959;-51
2021/12/12 06:04:53;;;;;;;;;;;;;;;18.96;53.86;101573.78;7281147;19;153880;-51
2021/12/12 06:07:20;;;;;;;;;;;;;;;18.95;53.71;101572.09;7280298;19;153389;-51
2021/12/12 06:09:48;;;;;;;;;;;;;;;18.96;53.94;101572.94;7284113;19;151890;-51
2021/12/12 06:12:16;;;;;;;;;;;;;;;18.95;53.67;101577.69;7281357;19;153178;-51
2021/12/12 06:14:43;;;;;;;;;;;;;;;18.99;53.77;101583.56;7280620;19;153866;-51
2021/12/12 06:17:11;;;;;;;;;;;;;;;18.97;53.94;101574.63;7282554;19;152097;-50
2021/12/12 06:19:40;;;;;;;;;;;;;;;18.95;53.87;101577.69;7287395;19;152247;-52
2021/12/12 06:22:08;;;;;;;;;;;;;;;18.92;53.83;101583.88;7281534;19;152002;-51
2021/12/12 06:24:36;;;;;;;;;;;;;;;18.93;53.86;101582.75;7281492;19;153561;-51
2021/12/12 06:27:05;;;;;;;;;;;;;;;18.93;54.36;101590.31;7280265;19;153484;-51
2021/12/12 06:29:32;;;;;;;;;;;;;;;18.93;54.23;101585.56;7280138;19;152099;-51
2021/12/12 06:32:01;;;;;;;;;;;;;;;18.91;54.08;101587.78;7284360;19;153267;-51
2021/12/12 06:34:27;;;;;;;;;;;;;;;18.89;54.49;101586.41;7285012;19;154234;-51
2021/12/12 06:36:54;;;;;;;;;;;;;;;18.89;54.42;101589.19;7287533;19;151757;-50
2021/12/12 06:39:22;;;;;;;;;;;;;;;18.86;54.30;101593.38;7283962;19;152406;-51
2021/12/12 06:41:50;;;;;;;;;;;;;;;18.90;54.34;101594.50;7294772;19;154500;-51
2021/12/12 06:44:17;;;;;;;;;;;;;;;18.90;54.34;101591.69;7288568;19;152539;-51
2021/12/12 06:46:45;;;;;;;;;;;;;;;18.86;54.51;101598.13;7285162;19;152680;-49
2021/12/12 06:49:16;;;;;;;;;;;;;;;18.83;54.58;101596.75;7290081;19;151555;-50
2021/12/12 06:51:45;;;;;;;;;;;;;;;18.82;54.58;101597.88;7289043;19;152932;-50
2021/12/12 06:54:14;;;;;;;;;;;;;;;18.75;55.04;101602.09;7285652;19;153749;-50
2021/12/12 06:56:41;;;;;;;;;;;;;;;18.72;54.72;101606.28;7288228;19;152295;-50
2021/12/12 06:59:08;;;;;;;;;;;;;;;18.73;54.85;101605.16;7285550;19;153600;-51
2021/12/12 07:01:35;;;;;;;;;;;;;;;18.70;54.96;101610.47;7287055;19;153693;-51
2021/12/12 07:04:06;;;;;;;;;;;;;;;18.79;54.89;101611.59;7295437;19;151957;-51
2021/12/12 07:06:33;;;;;;;;;;;;;;;18.83;54.88;101610.75;7283812;19;153182;-51
2021/12/12 07:09:03;;;;;;;;;;;;;;;18.87;55.05;101620.28;7285106;19;152030;-51
2021/12/12 07:11:30;;;;;;;;;;;;;;;18.92;55.09;101616.63;7286618;19;151946;-51
2021/12/12 07:13:57;;;;;;;;;;;;;;;18.94;54.84;101618.00;7287134;19;152469;-51
2021/12/12 07:16:24;;;;;;;;;;;;;;;18.99;55.37;101623.63;7289189;19;151802;-49
2021/12/12 07:18:52;;;;;;;;;;;;;;;19.05;55.25;101632.84;7286429;19;152109;-52
2021/12/12 07:21:20;;;;;;;;;;;;;;;19.13;55.56;101639.84;7285894;19;154391;-51
2021/12/12 07:23:47;;;;;;;;;;;;;;;19.18;55.26;101635.06;7287657;19;152029;-50
2021/12/12 07:26:14;;;;;;;;;;;;;;;19.27;55.51;101649.34;7294613;19;153043;-50
2021/12/12 07:28:42;;;;;;;;;;;;;;;19.34;55.35;101645.16;7286164;19;152227;-50
2021/12/12 07:31:11;;;;;;;;;;;;;;;19.42;55.00;101644.56;7286449;19;151949;-50
2021/12/12 07:33:39;;;;;;;;;;;;;;;19.48;55.21;101656.63;7283358;19;153126;-50
2021/12/12 07:36:07;;;;;;;;;;;;;;;19.57;55.17;101651.28;7284397;19;152426;-50
2021/12/12 07:38:35;;;;;;;;;;;;;;;19.64;55.66;101658.25;7284212;19;151952;-51
2021/12/12 07:41:03;;;;;;;;;;;;;;;19.73;55.14;101659.34;7283764;19;153824;-51
2021/12/12 07:43:31;;;;;;;;;;;;;;;19.81;55.34;101658.75;7285466;19;151826;-51
2021/12/12 07:46:00;;;;;;;;;;;;;;;19.88;55.14;101661.25;7286293;19;153707;-51
2021/12/12 07:48:29;;;;;;;;;;;;;;;19.95;55.13;101671.03;7293700;19;153622;-50
2021/12/12 07:50:56;;;;;;;;;;;;;;;20.03;54.39;101677.19;7287906;19;153121;-51
2021/12/12 07:53:25;;;;;;;;;;;;;;;20.11;54.59;101673.78;7284061;19;155470;-51
2021/12/12 07:55:55;;;;;;;;;;;;;;;20.17;54.44;101678.25;7285940;19;152056;-52
2021/12/12 07:58:23;;;;;;;;;;;;;;;20.23;53.99;101680.72;7285001;19;152818;-51
2021/12/12 08:00:51;;;;;;;;;;;;;;;20.31;54.21;101684.91;7285650;19;153358;-51
2021/12/12 08:03:23;;;;;;;;;;;;;;;20.36;54.11;101687.69;7284647;19;151871;-51
2021/12/12 08:05:50;;;;;;;;;;;;;;;20.41;54.08;101694.13;7287643;19;152952;-51
2021/12/12 08:08:19;;;;;;;;;;;;;;;20.48;53.88;101693.81;7291502;19;152561;-51
2021/12/12 08:10:49;;;;;;;;;;;;;;;20.54;53.43;101691.81;7286724;19;152853;-50
2021/12/12 08:13:17;;;;;;;;;;;;;;;20.58;53.22;101699.34;7285899;19;153626;-51
2021/12/12 08:15:44;;;;;;;;;;;;;;;20.65;52.92;101710.28;7284479;19;152076;-50
2021/12/12 08:18:15;;;;;;;;;;;;;;;20.70;52.56;101705.47;7284403;19;152069;-51
2021/12/12 08:20:45;;;;;;;;;;;;;;;20.76;52.76;101707.09;7285175;19;154216;-51
2021/12/12 08:23:14;;;;;;;;;;;;;;;20.82;52.67;101705.09;7286576;19;151879;-50
2021/12/12 08:25:43;;;;;;;;;;;;;;;20.86;52.35;101707.03;7284920;19;152839;-51
2021/12/12 08:28:12;;;;;;;;;;;;;;;20.92;52.29;101707.84;7283665;19;153925;-51
2021/12/12 08:30:40;;;;;;;;;;;;;;;20.97;51.94;101710.59;7292874;19;151998;-51
2021/12/12 08:33:08;;;;;;;;;;;;;;;21.02;51.81;101716.19;7284793;19;153285;-50
2021/12/12 08:35:36;;;;;;;;;;;;;;;21.07;51.35;101715.31;7286122;19;151934;-51
2021/12/12 08:38:05;;;;;;;;;;;;;;;21.13;51.20;101725.38;7284805;19;153289;-51
2021/12/12 08:40:36;;;;;;;;;;;;;;;21.18;51.30;101729.00;7282039;19;153267;-50
2021/12/12 08:43:09;;;;;;;;;;;;;;;21.23;51.63;101725.31;7285965;19;151859;-52
2021/12/12 08:45:40;;;;;;;;;;;;;;;21.28;51.72;101725.25;7283998;19;152769;-51
2021/12/12 08:48:07;;;;;;;;;;;;;;;21.34;51.23;101728.88;7285049;19;153468;-51
2021/12/12 08:50:36;;;;;;;;;;;;;;;21.37;51.42;101722.66;7285660;19;151882;-50
2021/12/12 08:53:04;;;;;;;;;;;;;;;21.42;50.98;101733.84;7291559;19;153311;-50
2021/12/12 08:55:35;;;;;;;;;;;;;;;21.47;50.71;101733.81;7284286;19;151930;-51
2021/12/12 08:58:14;;;;;;;;;;;;;;;21.50;50.53;101742.50;7282164;19;152266;-51
2021/12/12 09:00:51;;;;;;;;;;;;;;;21.56;50.38;101732.03;7280981;19;152171;-51
2021/12/12 09:03:24;;;;;;;;;;;;;;;21.61;50.24;101746.06;7284387;19;152282;-51
2021/12/12 09:05:51;;;;;;;;;;;;;;;21.65;49.95;101745.16;7282442;19;155840;-51
2021/12/12 09:08:30;;;;;;;;;;;;;;;21.69;50.37;101740.63;7282627;19;154142;-51
2021/12/12 09:11:04;;;;;;;;;;;;;;;21.73;50.03;101744.50;7283823;19;151736;-51
2021/12/12 09:13:35;;;;;;;;;;;;;;;21.77;50.29;101750.38;7283519;19;153028;-51
2021/12/12 09:16:05;;;;;;;;;;;;;;;21.82;49.77;101752.28;7291051;19;153505;-50
2021/12/12 09:18:36;;;;;;;;;;;;;;;21.85;50.05;101746.09;7283051;19;152166;-51
2021/12/12 09:21:09;;;;;;;;;;;;;;;21.91;49.70;101753.31;7283726;19;154153;-50
2021/12/12 09:23:43;;;;;;;;;;;;;;;21.94;49.87;101752.78;7281719;19;151729;-51
2021/12/12 09:26:13;;;;;;;;;;;;;;;21.98;49.67;101756.66;7284777;19;152727;-50
2021/12/12 09:28:44;;;;;;;;;;;;;;;22.01;49.62;101756.06;7281963;19;154002;-51
2021/12/12 09:31:16;;;;;;;;;;;;;;;22.04;49.90;101761.06;7284561;19;152020;-51
2021/12/12 09:33:45;;;;;;;;;;;;;;;22.05;49.45;101768.38;7282575;19;152509;-51
2021/12/12 09:36:16;;;;;;;;;;;;;;;22.06;49.45;101762.47;7282808;19;153259;-52
2021/12/12 09:38:51;;;;;;;;;;;;;;;22.07;49.25;101766.97;7287771;19;151948;-51
2021/12/12 09:41:28;;;;;;;;;;;;;;;22.08;48.90;101762.16;7280424;19;152369;-51
2021/12/12 09:44:02;;;;;;;;;;;;;;;22.08;49.05;101771.44;7283692;19;151847;-51
2021/12/12 09:46:38;;;;;;;;;;;;;;;22.08;48.67;101771.44;7282468;19;152668;-51
2021/12/12 09:51:59;;;;;;;;;;;;;;;22.10;49.21;101776.78;7281927;19;151906;-51
2021/12/12 09:54:36;;;;;;;;;;;;;;;22.09;48.67;101777.91;7281431;19;152817;-51
2021/12/12 09:57:13;;;;;;;;;;;;;;;22.07;48.59;101781.03;7282692;19;153313;-51
2021/12/12 09:59:41;;;;;;;;;;;;;;;22.06;48.78;101781.34;7282394;19;151562;-51
2021/12/12 10:02:15;;;;;;;;;;;;;;;22.04;48.69;101783.59;7285353;19;154356;-50
2021/12/12 10:04:52;;;;;;;;;;;;;;;22.01;48.36;101793.47;7282776;19;151688;-51
2021/12/12 10:07:29;;;;;;;;;;;;;;;22.01;48.75;101790.66;7284093;19;152894;-51
2021/12/12 10:09:59;;;;;;;;;;;;;;;21.97;48.70;101800.00;7285837;19;153719;-51
2021/12/12 10:12:33;;;;;;;;;;;;;;;21.95;48.40;101805.91;7289949;19;151943;-51
2021/12/12 10:15:08;;;;;;;;;;;;;;;21.94;48.33;101814.69;7290021;19;153214;-51
2021/12/12 10:17:54;;;;;;;;;;;;;;;21.90;48.60;101805.09;7286907;19;153384;-51
2021/12/12 10:20:25;;;;;;;;;;;;;;;21.86;48.47;101806.81;7287640;19;152617;-51
2021/12/12 10:22:58;;;;;;;;;;;;;;;21.85;48.34;101808.00;7294869;19;153795;-51
2021/12/12 10:25:29;;;;;;;;;;;;;;;21.80;48.22;101810.84;7289383;19;152121;-52
2021/12/12 10:28:06;;;;;;;;;;;;;;;21.74;48.56;101815.66;7286659;19;153297;-53
2021/12/12 10:30:35;;;;;;;;;;;;;;;21.69;48.28;101818.53;7286175;19;153977;-52
2021/12/12 10:33:12;;;;;;;;;;;;;;;21.65;48.24;101811.81;7288260;19;151843;-52
2021/12/12 10:35:47;;;;;;;;;;;;;;;21.63;48.42;101814.06;7288943;19;152439;-52
2021/12/12 10:38:20;;;;;;;;;;;;;;;21.60;48.10;101809.06;7286813;19;152478;-52
2021/12/12 10:40:51;;;;;;;;;;;;;;;21.56;48.31;101814.44;7287752;19;153607;-52
2021/12/12 10:43:24;;;;;;;;;;;;;;;21.53;48.61;101808.56;7288494;19;152843;-52
2021/12/12 10:46:03;;;;;;;;;;;;;;;21.48;48.25;101806.63;7295518;19;153843;-52
2021/12/12 10:48:53;;;;;;;;;;;;;;;21.44;48.63;101811.13;7288778;19;153185;-52
2021/12/12 10:51:22;;;;;;;;;;;;;;;21.41;48.24;101808.94;7288091;19;154800;-52
2021/12/12 10:53:58;;;;;;;;;;;;;;;21.39;48.28;101813.19;7289163;19;152079;-51
2021/12/12 10:56:33;;;;;;;;;;;;;;;21.34;48.31;101807.59;7288569;19;152329;-51
2021/12/12 10:59:02;;;;;;;;;;;;;;;21.31;48.56;101800.56;7287250;19;153402;-53
2021/12/12 11:01:31;;;;;;;;;;;;;;;21.28;48.81;101806.78;7287295;19;151647;-52
2021/12/12 11:04:02;;;;;;;;;;;;;;;21.25;48.52;101801.75;7285795;19;153628;-51
2021/12/12 11:06:32;;;;;;;;;;;;;;;21.21;49.15;101803.47;7287021;19;153462;-52
2021/12/12 11:09:04;;;;;;;;;;;;;;;21.16;48.99;101795.91;7291285;19;151845;-52
2021/12/12 11:11:39;;;;;;;;;;;;;;;21.15;49.03;101796.19;7285718;19;156067;-52
2021/12/12 11:14:06;;;;;;;;;;;;;;;21.12;48.77;101797.56;7284165;19;152286;-52
2021/12/12 11:16:36;;;;;;;;;;;;;;;21.10;49.07;101794.25;7286867;19;151846;-52
2021/12/12 11:19:08;;;;;;;;;;;;;;;21.07;49.31;101796.78;7285695;19;153673;-51
2021/12/12 11:21:39;;;;;;;;;;;;;;;21.03;49.53;101801.31;7286042;19;152262;-52
2021/12/12 11:24:11;;;;;;;;;;;;;;;20.99;49.67;101798.22;7286750;19;153570;-52
2021/12/12 11:26:42;;;;;;;;;;;;;;;20.96;49.55;101797.97;7284645;19;153972;-52
2021/12/12 11:29:15;;;;;;;;;;;;;;;20.91;49.51;101795.19;7286712;19;151830;-51
2021/12/12 11:31:44;;;;;;;;;;;;;;;20.90;49.70;101801.94;7292615;19;153604;-52
2021/12/12 11:34:32;;;;;;;;;;;;;;;20.85;50.18;101800.84;7284922;19;152099;-51
2021/12/12 11:37:03;;;;;;;;;;;;;;;20.85;50.13;101795.22;7284956;19;152879;-52
2021/12/12 11:39:34;;;;;;;;;;;;;;;20.84;50.05;101790.75;7285594;19;153210;-52
2021/12/12 11:42:05;;;;;;;;;;;;;;;20.80;49.77;101800.88;7285692;19;152207;-52
2021/12/12 11:44:36;;;;;;;;;;;;;;;20.78;50.08;101796.69;7286210;19;154991;-52
2021/12/12 11:47:10;;;;;;;;;;;;;;;20.74;49.98;101795.59;7284436;19;153177;-52
2021/12/12 11:49:43;;;;;;;;;;;;;;;20.69;49.97;101798.41;7286909;19;151860;-52
2021/12/12 11:52:14;;;;;;;;;;;;;;;20.70;50.41;101800.09;7286978;19;154696;-51
2021/12/12 11:54:43;;;;;;;;;;;;;;;20.70;50.26;101805.72;7291896;19;153008;-52
2021/12/12 11:57:11;;;;;;;;;;;;;;;20.67;50.15;101795.88;7287160;19;152907;-51
2021/12/12 11:59:49;;;;;;;;;;;;;;;20.63;50.38;101793.94;7282790;19;154004;-51
2021/12/12 12:02:22;;;;;;;;;;;;;;;20.59;50.14;101796.50;7285290;19;152279;-52
2021/12/12 12:04:59;;;;;;;;;;;;;;;20.54;50.57;101807.75;7286209;19;152828;-52
2021/12/12 12:07:39;;;;;;;;;;;;;;;20.52;50.21;101803.56;7284270;19;155502;-51
2021/12/12 12:10:09;;;;;;;;;;;;;;;20.49;50.65;101804.16;7284335;19;151999;-51
2021/12/12 12:12:37;;;;;;;;;;;;;;;20.46;50.29;101801.91;7284758;19;153724;-52
2021/12/12 12:15:10;;;;;;;;;;;;;;;20.58;50.23;101802.44;7283394;19;153848;-51
2021/12/12 12:17:38;;;;;;;;;;;;;;;20.53;50.85;101808.06;7291889;19;151994;-52
2021/12/12 12:20:08;;;;;;;;;;;;;;;20.59;50.86;101812.50;7283798;19;153320;-51
2021/12/12 12:22:42;;;;;;;;;;;;;;;20.62;51.38;101818.41;7285302;19;152148;-53
2021/12/12 12:25:15;;;;;;;;;;;;;;;20.60;51.27;101817.00;7283210;19;152608;-52
2021/12/12 12:27:49;;;;;;;;;;;;;;;20.61;51.42;101816.72;7281641;19;154443;-53
2021/12/12 12:30:26;;;;;;;;;;;;;;;20.61;51.24;101822.34;7281096;19;152590;-52
2021/12/12 12:33:02;;;;;;;;;;;;;;;20.63;51.29;101810.78;7284044;19;153947;-52
2021/12/12 12:35:38;;;;;;;;;;;;;;;20.64;51.25;101818.94;7282264;19;152420;-53
2021/12/12 12:38:14;;;;;;;;;;;;;;;20.68;51.08;101819.19;7292520;19;151964;-52
2021/12/12 12:40:43;;;;;;;;;;;;;;;20.70;50.78;101812.19;7280810;19;153933;-53
2021/12/12 12:43:30;;;;;;;;;;;;;;;20.76;50.61;101805.41;7284285;19;151891;-53
2021/12/12 12:46:07;;;;;;;;;;;;;;;20.81;50.54;101799.75;7283167;19;152849;-53
2021/12/12 12:48:35;;;;;;;;;;;;;;;20.86;50.82;101793.25;7282201;19;152496;-52
2021/12/12 12:51:11;;;;;;;;;;;;;;;20.91;50.52;101781.16;7283206;19;152444;-52
2021/12/12 12:53:41;;;;;;;;;;;;;;;20.97;50.42;101791.25;7284424;19;152611;-53
2021/12/12 12:56:14;;;;;;;;;;;;;;;21.03;50.25;101790.09;7279663;19;154287;-52
2021/12/12 12:58:51;;;;;;;;;;;;;;;21.07;50.03;101782.75;7280563;19;152245;-52
2021/12/12 13:01:29;;;;;;;;;;;;;;;21.14;50.01;101786.09;7287542;19;152998;-53
2021/12/12 13:04:07;;;;;;;;;;;;;;;21.19;49.77;101786.06;7282447;19;153018;-52
2021/12/12 13:06:45;;;;;;;;;;;;;;;21.24;49.76;101780.41;7283335;19;152884;-52
2021/12/12 13:09:12;;;;;;;;;;;;;;;21.27;49.77;101786.25;7278573;19;153228;-52